Time;durP1;ratioP1;P1;durP2;ratioP2;P2;SDS_P1;SDS_P2;PMS_P1;PMS_P2;Temp;Humidity;BMP_temperature;BMP_pressure;BME280_temperature;BME280_humidity;BME280_pressure;Samples;Min_cycle;Max_cycle;Signal;HPM_P1;HPM_P2
2022/07/05 00:01:01;;;;;;;58.10;39.70;;;;;;;19.46;100.00;100145.30;1609767;88;21502;-55
2022/07/05 00:03:29;;;;;;;61.57;39.23;;;;;;;19.45;100.00;100144.50;1619980;86;21046;-55
2022/07/05 00:05:56;;;;;;;56.17;37.47;;;;;;;19.46;100.00;100140.01;1611773;88;22081;-57
2022/07/05 00:08:24;;;;;;;54.70;36.80;;;;;;;19.49;100.00;100143.48;1629941;87;21510;-55
2022/07/05 00:10:53;;;;;;;58.47;40.70;;;;;;;19.43;100.00;100143.95;1601781;89;20988;-56
2022/07/05 00:13:21;;;;;;;69.90;42.27;;;;;;;19.38;100.00;100143.08;1587458;89;21135;-57
2022/07/05 00:15:50;;;;;;;63.87;42.47;;;;;;;19.38;100.00;100137.78;1634874;87;21128;-56
2022/07/05 00:18:18;;;;;;;60.57;43.47;;;;;;;19.38;100.00;100136.47;1604617;88;21257;-56
2022/07/05 00:20:45;;;;;;;54.10;42.57;;;;;;;19.36;100.00;100134.61;1634961;87;21181;-55
2022/07/05 00:23:14;;;;;;;58.53;41.50;;;;;;;19.39;100.00;100137.53;1606573;88;21024;-56
2022/07/05 00:25:41;;;;;;;60.07;41.63;;;;;;;19.38;100.00;100140.43;1638916;87;21462;-55
2022/07/05 00:28:10;;;;;;;58.60;40.40;;;;;;;19.36;100.00;100139.89;1602524;89;21548;-59
2022/07/05 00:30:37;;;;;;;62.37;44.83;;;;;;;19.33;100.00;100140.38;1635038;87;21273;-55
2022/07/05 00:33:05;;;;;;;66.13;44.20;;;;;;;19.35;100.00;100139.06;1619598;88;21067;-55
2022/07/05 00:35:32;;;;;;;64.20;47.37;;;;;;;19.35;100.00;100136.95;1590910;89;21099;-55
2022/07/05 00:37:59;;;;;;;71.63;48.27;;;;;;;19.35;100.00;100135.10;1592853;89;21044;-55
2022/07/05 00:40:27;;;;;;;57.80;44.23;;;;;;;19.32;100.00;100138.25;1591360;89;21147;-62
2022/07/05 00:42:54;;;;;;;62.27;43.60;;;;;;;19.34;100.00;100136.67;1594667;89;21286;-55
2022/07/05 00:45:21;;;;;;;66.33;44.80;;;;;;;19.28;100.00;100140.28;1619332;88;21092;-55
2022/07/05 00:47:49;;;;;;;63.37;43.70;;;;;;;19.31;100.00;100143.23;1639351;87;21120;-56
2022/07/05 00:50:17;;;;;;;68.33;45.77;;;;;;;19.29;100.00;100149.83;1608747;88;21596;-64
2022/07/05 00:52:44;;;;;;;70.30;47.67;;;;;;;19.30;100.00;100147.45;1640522;87;21012;-56
2022/07/05 00:55:11;;;;;;;60.20;44.27;;;;;;;19.27;100.00;100149.26;1621189;88;21780;-55
2022/07/05 00:57:38;;;;;;;59.70;44.83;;;;;;;19.25;100.00;100148.72;1591529;89;21093;-55
2022/07/05 01:00:07;;;;;;;62.20;45.87;;;;;;;19.23;100.00;100142.34;1594888;89;21166;-55
2022/07/05 01:02:35;;;;;;;57.90;45.07;;;;;;;19.23;100.00;100148.15;1598963;89;21072;-57
2022/07/05 01:05:03;;;;;;;69.53;47.77;;;;;;;19.13;100.00;100153.58;1599679;87;21337;-55
2022/07/05 01:07:30;;;;;;;70.77;49.10;;;;;;;19.05;100.00;100151.31;1550157;89;21263;-55
2022/07/05 01:09:59;;;;;;;63.30;47.33;;;;;;;19.00;100.00;100151.25;1588250;89;20999;-56
2022/07/05 01:12:26;;;;;;;61.40;48.20;;;;;;;18.95;100.00;100144.05;1594743;89;21146;-55
2022/07/05 01:14:54;;;;;;;65.33;47.57;;;;;;;18.93;100.00;100146.64;1594130;89;21068;-56
2022/07/05 01:17:22;;;;;;;58.73;46.50;;;;;;;18.88;100.00;100153.18;1588561;89;21953;-55
2022/07/05 01:19:51;;;;;;;57.97;44.90;;;;;;;18.86;100.00;100147.32;1636306;87;21340;-56
2022/07/05 01:22:20;;;;;;;57.13;45.50;;;;;;;18.83;100.00;100151.27;1605394;88;21091;-55
2022/07/05 01:24:49;;;;;;;59.13;45.43;;;;;;;18.81;100.00;100150.69;1601922;89;21126;-63
2022/07/05 01:27:17;;;;;;;61.17;44.07;;;;;;;18.77;100.00;100148.77;1611385;88;21140;-55
2022/07/05 01:29:44;;;;;;;55.50;41.20;;;;;;;18.66;100.00;100154.37;1624984;88;21056;-56
2022/07/05 01:32:11;;;;;;;54.13;38.87;;;;;;;18.60;100.00;100149.53;1638280;87;21170;-57
2022/07/05 01:34:39;;;;;;;52.57;38.13;;;;;;;18.62;100.00;100152.72;1588015;89;22128;-57
2022/07/05 01:37:07;;;;;;;55.60;39.67;;;;;;;18.63;100.00;100155.63;1639089;87;21098;-55
2022/07/05 01:39:34;;;;;;;58.60;41.77;;;;;;;18.64;100.00;100159.10;1604044;88;21066;-55
2022/07/05 01:42:02;;;;;;;62.83;42.93;;;;;;;18.64;100.00;100166.50;1577549;89;21083;-57
2022/07/05 01:44:30;;;;;;;48.20;38.87;;;;;;;18.68;100.00;100167.62;1630737;87;21156;-57
2022/07/05 01:47:05;;;;;;;53.27;38.87;;;;;;;18.70;100.00;100162.09;1601610;89;21048;-55
2022/07/05 01:49:41;;;;;;;51.00;39.67;;;;;;;18.73;100.00;100165.61;1632164;87;21574;-55
2022/07/05 01:52:11;;;;;;;55.70;41.37;;;;;;;18.75;100.00;100160.88;1601931;89;21044;-56
2022/07/05 01:54:38;;;;;;;52.00;39.13;;;;;;;18.81;100.00;100161.25;1589832;89;21140;-57
2022/07/05 01:57:06;;;;;;;53.07;40.07;;;;;;;18.85;100.00;100163.69;1632834;87;21600;-57
2022/07/05 01:59:34;;;;;;;53.87;41.37;;;;;;;18.93;100.00;100163.81;1612008;88;21062;-64
2022/07/05 02:02:02;;;;;;;53.87;40.17;;;;;;;19.04;100.00;100162.14;1601874;89;21488;-56
2022/07/05 02:04:29;;;;;;;52.73;40.03;;;;;;;19.32;100.00;100167.33;1597060;87;21095;-63
2022/07/05 02:06:57;;;;;;;53.17;39.20;;;;;;;19.64;100.00;100167.52;1632132;87;21510;-55
2022/07/05 02:09:24;;;;;;;53.90;39.63;;;;;;;19.98;100.00;100165.28;1626938;87;21170;-55
2022/07/05 02:11:52;;;;;;;53.77;42.20;;;;;;;20.40;100.00;100172.08;1614855;88;21046;-57
2022/07/05 02:14:19;;;;;;;51.07;38.23;;;;;;;20.82;100.00;100168.78;1617269;88;21090;-55
2022/07/05 02:16:47;;;;;;;54.20;40.73;;;;;;;21.27;100.00;100176.27;1632752;87;20968;-55
2022/07/05 02:19:15;;;;;;;44.57;34.97;;;;;;;21.62;100.00;100170.38;1627766;87;21019;-56
2022/07/05 02:21:43;;;;;;;39.93;31.20;;;;;;;22.08;100.00;100169.77;1616747;88;21295;-62
2022/07/05 02:24:12;;;;;;;36.13;28.53;;;;;;;22.49;100.00;100162.70;1613326;88;21047;-55
2022/07/05 02:26:41;;;;;;;36.00;28.13;;;;;;;22.92;100.00;100165.96;1635408;86;21107;-57
2022/07/05 02:29:11;;;;;;;36.93;27.50;;;;;;;23.34;100.00;100160.84;1628843;86;21094;-55
2022/07/05 02:31:39;;;;;;;35.40;29.17;;;;;;;23.85;100.00;100163.34;1606134;88;21075;-56
2022/07/05 02:34:06;;;;;;;34.90;28.03;;;;;;;24.35;100.00;100163.33;1631427;87;21270;-55
2022/07/05 02:36:33;;;;;;;36.30;28.47;;;;;;;24.74;100.00;100167.36;1631801;87;21479;-63
2022/07/05 02:39:01;;;;;;;35.33;30.03;;;;;;;25.07;100.00;100168.92;1631895;87;21001;-55
2022/07/05 02:41:28;;;;;;;41.13;32.10;;;;;;;25.41;100.00;100170.20;1627932;87;21038;-61
2022/07/05 02:43:56;;;;;;;47.63;38.10;;;;;;;25.79;100.00;100173.79;1621684;88;21040;-55
2022/07/05 02:46:25;;;;;;;50.17;37.90;;;;;;;26.27;100.00;100172.89;1615142;87;21334;-55
2022/07/05 02:48:53;;;;;;;49.57;39.03;;;;;;;26.83;100.00;100178.74;1636401;87;21123;-56
2022/07/05 02:51:20;;;;;;;47.27;39.13;;;;;;;27.27;100.00;100174.22;1628628;87;21462;-59
2022/07/05 02:53:49;;;;;;;49.38;38.95;;;;;;;27.73;97.73;100166.66;1634690;87;21005;-57
2022/07/05 02:56:18;;;;;;;42.50;34.90;;;;;;;28.28;87.60;100172.45;1628466;87;21024;-59
2022/07/05 02:58:46;;;;;;;41.10;34.60;;;;;;;28.69;82.80;100170.97;1630181;87;22143;-64
2022/07/05 03:01:14;;;;;;;40.33;35.92;;;;;;;29.16;75.83;100170.05;1604199;88;21539;-56
2022/07/05 03:03:41;;;;;;;41.18;35.83;;;;;;;29.55;69.25;100172.50;1616260;88;21386;-58
2022/07/05 03:06:09;;;;;;;51.30;40.35;;;;;;;29.92;65.38;100177.88;1638481;84;21126;-56
2022/07/05 03:08:36;;;;;;;45.83;40.80;;;;;;;30.35;63.45;100181.18;1595892;88;21108;-55
2022/07/05 03:11:03;;;;;;;53.90;47.65;;;;;;;30.82;60.18;100177.25;1638272;87;21296;-57
2022/07/05 03:13:31;;;;;;;62.23;53.70;;;;;;;31.24;57.09;100187.64;1604520;88;21087;-56
2022/07/05 03:15:58;;;;;;;51.05;45.60;;;;;;;31.56;55.15;100178.73;1635460;87;20960;-57
2022/07/05 03:18:26;;;;;;;53.40;42.95;;;;;;;31.97;53.48;100178.02;1605786;88;21589;-56
2022/07/05 03:20:53;;;;;;;51.40;41.85;;;;;;;32.34;51.33;100179.53;1635281;87;21057;-57
2022/07/05 03:23:21;;;;;;;48.70;41.95;;;;;;;32.65;49.88;100185.06;1606228;88;22451;-60
2022/07/05 03:25:50;;;;;;;49.10;40.43;;;;;;;32.98;48.81;100185.06;1636902;87;20985;-58
2022/07/05 03:28:17;;;;;;;47.93;40.65;;;;;;;33.38;46.90;100181.16;1607495;88;21037;-56
2022/07/05 03:30:45;;;;;;;47.98;41.55;;;;;;;33.62;45.71;100183.07;1639895;87;20991;-55
2022/07/05 03:33:12;;;;;;;55.03;48.48;;;;;;;33.81;45.21;100186.53;1619872;88;21053;-59
2022/07/05 03:35:42;;;;;;;56.45;50.28;;;;;;;34.10;44.09;100191.46;1589755;89;21955;-57
2022/07/05 03:38:09;;;;;;;59.77;50.40;;;;;;;34.33;43.15;100195.77;1636933;87;21568;-56
2022/07/05 03:40:36;;;;;;;50.48;45.25;;;;;;;34.46;43.10;100196.50;1606927;88;21103;-55
2022/07/05 03:43:03;;;;;;;47.45;39.45;;;;;;;34.76;42.53;100195.02;1637109;87;20993;-60
2022/07/05 03:45:32;;;;;;;43.60;38.20;;;;;;;35.05;42.00;100201.19;1607432;88;21131;-55
2022/07/05 03:48:00;;;;;;;43.48;34.70;;;;;;;35.49;41.28;100196.45;1639642;87;21281;-56
2022/07/05 03:50:27;;;;;;;37.17;32.63;;;;;;;35.98;40.50;100197.89;1609348;88;21013;-55
2022/07/05 03:52:55;;;;;;;35.83;32.08;;;;;;;36.42;39.25;100189.48;1630760;87;21060;-55
2022/07/05 03:55:22;;;;;;;32.25;28.95;;;;;;;36.72;37.99;100192.39;1609127;88;21040;-58
2022/07/05 03:57:51;;;;;;;32.73;29.30;;;;;;;36.89;37.51;100193.25;1633367;87;20987;-56
2022/07/05 04:00:18;;;;;;;33.58;28.57;;;;;;;37.08;36.98;100197.08;1611483;88;21156;-55
2022/07/05 04:02:48;;;;;;;32.03;28.62;;;;;;;37.21;36.47;100191.67;1635225;87;21008;-58
2022/07/05 04:05:15;;;;;;;31.82;27.80;;;;;;;37.28;36.46;100195.87;1593270;87;21037;-64
2022/07/05 04:07:53;;;;;;;30.90;27.67;;;;;;;37.47;36.17;100187.63;1612756;88;20990;-55
2022/07/05 04:10:23;;;;;;;;;;;;;;;37.66;35.83;100194.89;1614163;88;21148;-55
2022/07/05 04:12:51;;;;;;;29.65;26.60;;;;;;;37.96;35.28;100194.92;1618758;88;22148;-56
2022/07/05 04:15:19;;;;;;;33.78;26.42;;;;;;;38.17;34.97;100197.09;1596060;89;21106;-60
2022/07/05 04:17:49;;;;;;;29.40;25.88;;;;;;;38.40;34.64;100198.34;1608479;88;21544;-56
2022/07/05 04:20:17;;;;;;;;;;;;;;;38.64;34.31;100195.69;1573971;90;21057;-59
2022/07/05 04:22:44;;;;;;;33.15;27.30;;;;;;;38.96;33.79;100199.87;1597118;89;20189;-56
2022/07/05 04:25:16;;;;;;;34.38;28.90;;;;;;;39.16;33.48;100197.88;1599574;89;22389;-62
2022/07/05 04:27:47;;;;;;;34.27;30.60;;;;;;;39.47;33.20;100195.00;1610968;87;21657;-56
2022/07/05 04:30:15;;;;;;;38.17;31.07;;;;;;;39.81;32.48;100193.64;1576153;89;21500;-58
2022/07/05 04:32:43;;;;;;;34.13;30.57;;;;;;;40.14;32.26;100191.85;1613974;88;21032;-56
2022/07/05 04:35:10;;;;;;;33.33;29.72;;;;;;;40.36;31.96;100198.94;1586047;89;20967;-65
2022/07/05 04:37:37;;;;;;;33.05;29.55;;;;;;;40.68;31.42;100186.52;1616746;87;21339;-57
2022/07/05 04:40:07;;;;;;;38.02;32.38;;;;;;;41.00;31.21;100189.30;1580120;90;21076;-56
2022/07/05 04:42:35;;;;;;;35.20;31.57;;;;;;;41.29;30.28;100191.38;1591791;88;21637;-55
2022/07/05 04:45:03;;;;;;;36.25;31.70;;;;;;;41.36;29.94;100190.59;1612955;88;21436;-63
2022/07/05 04:47:31;;;;;;;34.70;30.90;;;;;;;41.44;29.66;100187.47;1615456;87;20994;-57
2022/07/05 04:50:00;;;;;;;33.65;30.20;;;;;;;41.68;29.91;100189.95;1613567;88;21489;-57
2022/07/05 04:52:28;;;;;;;34.07;30.70;;;;;;;42.07;29.28;100186.28;1617175;88;20958;-56
2022/07/05 04:54:55;;;;;;;34.10;30.45;;;;;;;42.39;28.88;100188.08;1616608;87;21615;-56
2022/07/05 04:57:22;;;;;;;33.85;30.17;;;;;;;42.62;28.30;100191.06;1588006;88;21185;-61
2022/07/05 04:59:50;;;;;;;36.38;32.80;;;;;;;42.83;28.13;100192.09;1616735;87;21934;-57
2022/07/05 05:02:17;;;;;;;34.67;31.12;;;;;;;42.97;27.84;100187.27;1614472;88;21295;-56
2022/07/05 05:04:44;;;;;;;37.23;32.38;;;;;;;43.07;27.60;100190.33;1619763;87;21467;-56
2022/07/05 05:07:12;;;;;;;35.48;31.68;;;;;;;43.02;27.09;100191.53;1641198;86;20980;-59
2022/07/05 05:09:40;;;;;;;34.05;30.52;;;;;;;42.61;27.98;100196.34;1691568;84;21295;-57
2022/07/05 05:12:08;;;;;;;35.63;31.85;;;;;;;42.50;27.85;100202.48;1691348;84;21812;-56
2022/07/05 05:14:36;;;;;;;36.48;32.75;;;;;;;42.48;27.73;100202.13;1686449;84;21268;-60
2022/07/05 05:17:03;;;;;;;37.08;33.28;;;;;;;42.54;27.77;100193.64;1684258;84;21011;-58
2022/07/05 05:19:32;;;;;;;35.90;32.20;;;;;;;42.69;27.43;100188.27;1689495;84;21447;-64
2022/07/05 05:21:59;;;;;;;36.88;31.93;;;;;;;42.79;27.29;100193.49;1685351;84;21074;-57
2022/07/05 05:24:26;;;;;;;35.10;31.65;;;;;;;42.62;27.41;100192.44;1682580;84;21079;-56
2022/07/05 05:26:54;;;;;;;35.08;30.92;;;;;;;42.61;27.45;100184.59;1687044;84;21175;-59
2022/07/05 05:29:21;;;;;;;30.32;27.22;;;;;;;42.48;27.83;100191.16;1683412;84;21074;-64
2022/07/05 05:31:48;;;;;;;37.60;30.50;;;;;;;42.48;27.83;100191.16;1684048;84;21527;-56
2022/07/05 05:34:16;;;;;;;32.40;28.83;;;;;;;42.32;28.20;100188.12;1673422;84;21023;-56
2022/07/05 05:36:43;;;;;;;34.30;28.52;;;;;;;42.52;28.10;100194.66;1686768;84;20994;-57
2022/07/05 05:39:13;;;;;;;31.17;27.98;;;;;;;42.92;27.28;100188.28;1682655;84;21246;-62
2022/07/05 05:41:41;;;;;;;30.35;27.22;;;;;;;43.25;27.07;100189.56;1650581;86;21019;-58
2022/07/05 05:44:10;;;;;;;31.23;26.50;;;;;;;43.58;26.63;100179.83;1654778;86;21002;-56
2022/07/05 05:46:37;;;;;;;28.12;25.25;;;;;;;43.98;26.30;100181.49;1654585;86;21137;-56
2022/07/05 05:49:05;;;;;;;27.35;24.72;;;;;;;44.34;26.03;100189.27;1626125;87;21063;-59
2022/07/05 05:51:32;;;;;;;26.30;23.65;;;;;;;44.72;25.62;100180.84;1676932;84;21134;-60
2022/07/05 05:53:59;;;;;;;27.37;23.15;;;;;;;44.83;24.81;100189.70;1687251;84;21458;-56
2022/07/05 05:56:27;;;;;;;24.47;22.00;;;;;;;44.75;24.72;100182.77;1681187;84;21074;-56
2022/07/05 05:58:54;;;;;;;26.05;23.45;;;;;;;44.65;24.84;100183.86;1687001;84;21066;-59
2022/07/05 06:01:22;;;;;;;27.70;24.82;;;;;;;44.76;24.79;100182.34;1683860;84;21304;-58
2022/07/05 06:03:51;;;;;;;27.20;24.40;;;;;;;44.96;24.98;100178.25;1687643;84;21313;-57
2022/07/05 06:06:18;;;;;;;27.17;24.25;;;;;;;45.01;24.71;100179.16;1679536;84;21328;-57
2022/07/05 06:08:45;;;;;;;26.33;23.12;;;;;;;45.13;24.78;100173.67;1626315;87;21105;-60
2022/07/05 06:11:13;;;;;;;24.63;22.22;;;;;;;45.28;24.40;100170.82;1586718;88;21316;-57
2022/07/05 06:13:40;;;;;;;39.48;23.47;;;;;;;45.34;24.53;100165.58;1612275;87;21046;-60
2022/07/05 06:16:08;;;;;;;23.80;21.40;;;;;;;45.54;24.44;100161.47;1633974;87;22481;-56
2022/07/05 06:18:35;;;;;;;25.05;22.52;;;;;;;45.70;24.01;100160.16;1630490;87;21521;-58
2022/07/05 06:21:03;;;;;;;24.85;22.35;;;;;;;45.88;23.32;100161.77;1615998;87;22123;-57
2022/07/05 06:23:31;;;;;;;24.90;22.42;;;;;;;45.85;23.43;100156.53;1603930;88;21377;-64
2022/07/05 06:25:59;;;;;;;23.67;21.17;;;;;;;45.81;23.23;100154.44;1617818;88;27160;-56
2022/07/05 06:28:26;;;;;;;23.80;21.60;;;;;;;45.77;23.69;100152.36;1632665;87;21164;-59
2022/07/05 06:30:54;;;;;;;23.18;20.77;;;;;;;45.59;23.34;100159.61;1636321;87;21057;-57
2022/07/05 06:33:21;;;;;;;23.67;21.35;;;;;;;45.43;23.60;100156.17;1615845;88;21139;-63
2022/07/05 06:35:48;;;;;;;22.73;20.52;;;;;;;45.13;23.66;100158.53;1627917;86;21531;-56
2022/07/05 06:38:15;;;;;;;22.60;20.43;;;;;;;44.95;24.38;100148.42;1615805;87;21520;-57
2022/07/05 06:40:43;;;;;;;21.10;18.73;;;;;;;45.11;23.56;100154.81;1613114;88;21246;-58
2022/07/05 06:43:13;;;;;;;21.37;17.65;;;;;;;45.15;23.57;100148.64;1635860;87;21074;-63
2022/07/05 06:45:41;;;;;;;21.90;19.60;;;;;;;45.30;23.50;100150.52;1632264;87;21663;-57
2022/07/05 06:48:10;;;;;;;22.75;20.48;;;;;;;45.41;23.14;100146.18;1636269;87;21039;-56
2022/07/05 06:50:39;;;;;;;21.50;18.90;;;;;;;45.35;23.51;100143.16;1621445;88;20969;-61
2022/07/05 06:53:07;;;;;;;19.90;17.92;;;;;;;45.36;23.49;100145.31;1628832;87;21447;-64
2022/07/05 06:55:34;;;;;;;20.68;18.57;;;;;;;45.37;23.56;100142.13;1634644;87;21072;-56
2022/07/05 06:58:06;;;;;;;20.50;18.35;;;;;;;45.22;23.19;100142.83;1613326;88;21181;-57
2022/07/05 07:00:34;;;;;;;20.65;18.57;;;;;;;45.05;23.57;100135.08;1635758;87;21142;-63
2022/07/05 07:03:02;;;;;;;19.77;17.67;;;;;;;45.09;23.39;100148.97;1632501;87;21539;-57
2022/07/05 07:05:30;;;;;;;22.42;17.02;;;;;;;45.30;23.11;100142.86;1619894;84;21105;-57
2022/07/05 07:10:43;;;;;;;15.75;14.13;;;;;;;45.72;22.08;100141.83;1635030;87;20987;-59
2022/07/05 07:13:10;;;;;;;16.27;14.03;;;;;;;45.70;22.03;100141.50;1635333;86;21685;-56
2022/07/05 07:15:38;;;;;;;15.93;14.45;;;;;;;45.78;21.78;100141.51;1635159;87;21585;-57
2022/07/05 07:18:06;;;;;;;16.43;14.77;;;;;;;45.84;22.02;100139.23;1618999;87;21200;-58
2022/07/05 07:20:34;;;;;;;15.85;14.43;;;;;;;45.68;21.52;100140.53;1615799;87;21056;-60
2022/07/05 07:23:01;;;;;;;16.55;14.98;;;;;;;45.48;21.71;100142.54;1631697;87;21556;-57
2022/07/05 07:25:30;;;;;;;11.55;8.45;;;;;;;45.49;21.87;100138.58;1624532;87;20984;-56
2022/07/05 07:27:57;;;;;;;7.35;6.62;;;;;;;45.62;20.22;100140.27;1617987;88;21105;-58
2022/07/05 07:30:27;;;;;;;7.62;6.92;;;;;;;45.79;19.20;100136.16;1625729;87;21291;-59
2022/07/05 07:32:55;;;;;;;7.67;6.97;;;;;;;45.71;19.21;100139.68;1630917;87;21837;-56
2022/07/05 07:35:23;;;;;;;8.15;6.15;;;;;;;45.38;19.17;100142.89;1617396;87;21040;-56
2022/07/05 07:37:50;;;;;;;8.75;6.53;;;;;;;44.61;19.12;100144.65;1635602;87;21092;-58
2022/07/05 07:40:18;;;;;;;6.67;5.93;;;;;;;43.54;19.96;100147.53;1618193;87;21051;-63
2022/07/05 07:42:45;;;;;;;6.72;5.62;;;;;;;42.66;20.56;100149.36;1641306;87;21244;-56
2022/07/05 07:45:14;;;;;;;9.88;6.50;;;;;;;41.78;21.98;100142.58;1619102;87;21081;-57
2022/07/05 07:47:44;;;;;;;10.88;6.25;;;;;;;40.83;22.27;100146.48;1640365;87;21537;-55
2022/07/05 07:50:12;;;;;;;9.30;6.62;;;;;;;40.05;22.62;100153.20;1619357;87;21067;-56
2022/07/05 07:52:41;;;;;;;9.28;8.25;;;;;;;39.69;23.69;100148.95;1631878;87;21551;-57
2022/07/05 07:55:09;;;;;;;11.35;8.73;;;;;;;39.85;23.99;100148.63;1609217;88;21293;-56
2022/07/05 07:57:36;;;;;;;7.30;6.33;;;;;;;40.23;23.50;100143.10;1618561;87;21094;-56
2022/07/05 08:00:05;;;;;;;8.33;7.35;;;;;;;40.58;22.90;100138.91;1637069;87;21035;-62
2022/07/05 08:02:34;;;;;;;12.18;7.05;;;;;;;41.12;22.68;100138.30;1626095;87;21147;-56
2022/07/05 08:05:01;;;;;;;11.68;7.03;;;;;;;41.20;22.82;100137.10;1639439;87;21049;-57
2022/07/05 08:07:29;;;;;;;8.98;7.87;;;;;;;41.29;22.95;100136.09;1627473;87;21262;-55
2022/07/05 08:09:57;;;;;;;9.50;8.48;;;;;;;41.54;22.32;100131.16;1625783;87;21622;-63
2022/07/05 08:12:24;;;;;;;6.50;5.80;;;;;;;41.78;22.70;100127.52;1631116;87;21516;-56
2022/07/05 08:14:52;;;;;;;6.20;3.90;;;;;;;42.22;21.78;100141.20;1650375;86;21728;-56
2022/07/05 08:17:20;;;;;;;5.95;5.35;;;;;;;42.59;21.09;100130.20;1644412;86;22204;-56
2022/07/05 08:22:33;;;;;;;10.95;8.75;;;;;;;42.42;21.22;100133.84;1603144;88;21106;-56
2022/07/05 08:25:00;;;;;;;10.70;9.18;;;;;;;42.41;20.82;100132.30;1653251;86;21807;-55
2022/07/05 08:27:28;;;;;;;11.90;10.55;;;;;;;42.31;20.81;100131.18;1647464;86;20999;-57
2022/07/05 08:29:55;;;;;;;17.35;15.18;;;;;;;42.26;20.63;100126.91;1642945;86;21352;-55
2022/07/05 08:32:22;;;;;;;25.75;21.25;;;;;;;42.14;20.82;100129.33;1622052;88;21791;-60
2022/07/05 08:34:50;;;;;;;20.88;18.60;;;;;;;41.70;22.00;100123.86;1641953;86;21376;-55
2022/07/05 08:37:18;;;;;;;27.98;24.30;;;;;;;41.35;21.60;100126.90;1626838;88;21103;-58
2022/07/05 08:39:45;;;;;;;32.48;27.93;;;;;;;41.22;22.20;100123.83;1642934;86;21037;-57
2022/07/05 08:42:12;;;;;;;31.07;27.80;;;;;;;40.92;22.30;100123.47;1655153;86;21101;-63
2022/07/05 08:44:40;;;;;;;38.00;32.42;;;;;;;40.83;23.21;100119.16;1617277;87;21304;-56
2022/07/05 08:47:11;;;;;;;39.18;32.63;;;;;;;41.01;22.80;100121.91;1655798;86;21179;-56
2022/07/05 08:49:40;;;;;;;40.03;33.70;;;;;;;40.78;23.25;100119.56;1619795;87;21567;-56
2022/07/05 08:52:10;;;;;;;36.58;31.62;;;;;;;40.38;23.37;100117.38;1645477;86;21128;-58
2022/07/05 08:54:37;;;;;;;33.38;29.10;;;;;;;40.31;23.85;100126.95;1622220;88;21126;-57
2022/07/05 08:57:05;;;;;;;37.23;32.48;;;;;;;40.41;23.73;100121.28;1630437;87;22143;-56
2022/07/05 08:59:32;;;;;;;39.40;31.15;;;;;;;40.97;23.35;100123.06;1630444;87;20979;-61
2022/07/05 09:02:05;;;;;;;31.52;26.27;;;;;;;41.53;23.74;100112.61;1630461;87;21177;-63
2022/07/05 09:04:33;;;;;;;26.47;23.70;;;;;;;41.62;23.46;100108.06;1630339;87;21553;-56
2022/07/05 09:07:07;;;;;;;27.27;23.52;;;;;;;41.48;22.98;100117.09;1623143;87;21061;-58
2022/07/05 09:09:34;;;;;;;28.87;25.85;;;;;;;41.27;22.96;100123.41;1605019;88;21164;-56
2022/07/05 09:12:04;;;;;;;30.90;27.90;;;;;;;41.08;23.59;100125.99;1618405;88;21134;-57
2022/07/05 09:14:33;;;;;;;29.37;25.15;;;;;;;41.22;23.63;100125.19;1619277;88;21126;-56
2022/07/05 09:17:02;;;;;;;25.00;22.45;;;;;;;41.40;22.89;100127.08;1620585;88;21111;-56
2022/07/05 09:19:31;;;;;;;23.42;21.00;;;;;;;41.15;22.49;100126.58;1616282;88;21008;-58
2022/07/05 09:22:06;;;;;;;25.10;22.32;;;;;;;40.64;23.76;100124.25;1591975;89;21195;-64
2022/07/05 09:24:35;;;;;;;25.77;23.07;;;;;;;40.53;23.93;100122.84;1618086;88;21464;-57
2022/07/05 09:27:04;;;;;;;26.42;21.95;;;;;;;40.42;23.25;100122.06;1575959;88;21104;-57
2022/07/05 09:29:31;;;;;;;19.35;16.07;;;;;;;40.13;24.39;100131.00;1610739;88;21644;-63
2022/07/05 09:31:58;;;;;;;14.68;12.53;;;;;;;40.29;23.61;100129.86;1623570;88;21580;-64
2022/07/05 09:34:27;;;;;;;19.12;13.50;;;;;;;40.38;23.43;100122.83;1615440;88;21261;-57
2022/07/05 09:37:02;;;;;;;15.38;13.13;;;;;;;40.58;23.69;100121.14;1575903;88;21040;-57
2022/07/05 09:39:36;;;;;;;15.35;13.13;;;;;;;40.81;22.60;100111.17;1617094;87;20990;-60
2022/07/05 09:42:25;;;;;;;13.58;9.98;;;;;;;41.09;22.15;100112.51;1623246;88;21537;-58
2022/07/05 09:44:56;;;;;;;8.93;8.03;;;;;;;40.62;22.07;100112.36;1614021;88;20980;-67
2022/07/05 09:47:27;;;;;;;10.88;9.00;;;;;;;40.12;22.73;100120.45;1594175;89;21253;-59
2022/07/05 09:49:56;;;;;;;;;;;;;;;39.83;24.00;100114.91;1588835;88;21930;-57
2022/07/05 09:52:38;;;;;;;10.53;9.43;;;;;;;39.74;24.90;100112.33;1603796;88;20247;-58
2022/07/05 09:55:19;;;;;;;10.53;9.45;;;;;;;39.76;24.38;100116.83;1567023;88;21116;-57
2022/07/05 09:57:50;;;;;;;9.13;8.13;;;;;;;39.69;24.40;100118.95;1604134;88;21945;-58
2022/07/05 10:00:19;;;;;;;10.55;8.23;;;;;;;39.62;24.76;100116.94;1593693;88;21964;-58
2022/07/05 10:02:49;;;;;;;9.03;6.37;;;;;;;39.88;24.08;100109.66;1615650;88;21092;-65
2022/07/05 10:05:24;;;;;;;8.20;6.70;;;;;;;39.94;23.86;100115.53;1604419;88;21046;-57
2022/07/05 10:08:03;;;;;;;7.35;6.50;;;;;;;39.93;22.99;100105.76;1627930;87;21087;-57
2022/07/05 10:10:32;;;;;;;6.78;6.08;;;;;;;39.53;24.16;100113.79;1624320;87;21594;-59
2022/07/05 10:13:03;;;;;;;7.12;5.83;;;;;;;39.46;23.35;100102.84;1637173;87;21765;-58
2022/07/05 10:15:32;;;;;;;6.20;5.37;;;;;;;39.43;24.16;100111.01;1639124;86;21012;-58
2022/07/05 10:18:19;;;;;;;5.43;4.90;;;;;;;39.66;23.86;100110.91;1631026;87;20949;-57
2022/07/05 10:20:46;;;;;;;5.85;5.20;;;;;;;39.77;23.17;100103.38;1635067;87;21094;-59
2022/07/05 10:23:17;;;;;;;6.22;4.92;;;;;;;39.55;23.81;100112.03;1581079;90;21082;-57
2022/07/05 10:25:49;;;;;;;6.00;5.40;;;;;;;39.50;24.01;100098.77;1634179;87;21906;-57
2022/07/05 10:28:17;;;;;;;9.03;6.03;;;;;;;39.72;23.68;100102.40;1615383;87;20988;-57
2022/07/05 10:30:46;;;;;;;7.00;5.47;;;;;;;39.73;24.10;100104.73;1638801;87;21020;-57
2022/07/05 10:33:14;;;;;;;6.30;5.50;;;;;;;39.66;24.44;100101.94;1634356;87;21090;-57
2022/07/05 10:38:17;;;;;;;6.55;5.20;;;;;;;39.88;24.11;100086.45;1804769;78;21996;-56
2022/07/05 10:40:47;;;;;;;7.10;5.03;;;;;;;39.89;23.43;100085.28;1777966;80;20982;-56
2022/07/05 10:43:14;;;;;;;6.03;4.70;;;;;;;39.68;22.95;100090.11;1733664;81;21281;-58
2022/07/05 10:45:47;;;;;;;6.87;6.17;;;;;;;39.63;23.85;100095.91;1783178;80;20935;-57
2022/07/05 10:48:19;;;;;;;6.53;5.87;;;;;;;39.72;23.30;100095.58;1738433;80;20932;-66
2022/07/05 10:50:48;;;;;;;6.25;5.65;;;;;;;39.43;23.65;100097.38;1764203;80;20998;-58
2022/07/05 10:53:19;;;;;;;6.70;6.00;;;;;;;38.84;24.55;100103.62;1758161;80;20937;-58
2022/07/05 10:55:55;;;;;;;6.70;6.10;;;;;;;38.47;24.53;100097.46;1765750;80;21340;-56
2022/07/05 10:58:39;;;;;;;6.60;5.90;;;;;;;38.29;24.82;100099.98;1763336;80;20982;-58
2022/07/05 11:01:24;;;;;;;6.90;5.40;;;;;;;37.85;25.14;100100.10;1777689;80;21039;-58
2022/07/05 11:04:06;;;;;;;6.20;5.60;;;;;;;37.35;25.81;100103.52;1773080;80;20930;-59
2022/07/05 11:06:42;;;;;;;6.85;5.60;;;;;;;36.78;25.91;100097.22;1768713;80;21117;-58
2022/07/05 11:09:15;;;;;;;8.60;6.22;;;;;;;36.30;26.42;100095.44;1761389;79;21256;-57
2022/07/05 11:12:00;;;;;;;6.87;5.87;;;;;;;36.11;27.02;100100.91;1775257;80;21035;-58
2022/07/05 11:14:33;;;;;;;7.05;6.35;;;;;;;35.99;27.73;100100.45;1770868;80;20955;-56
2022/07/05 11:17:25;;;;;;;6.50;5.80;;;;;;;35.92;28.04;100099.73;1755923;80;20968;-63
2022/07/05 11:20:08;;;;;;;7.92;6.17;;;;;;;35.84;27.93;100100.75;1773283;80;21480;-57
2022/07/05 11:22:41;;;;;;;6.20;5.60;;;;;;;35.88;28.41;100096.17;1745644;80;21272;-60
2022/07/05 11:25:10;;;;;;;6.10;5.55;;;;;;;36.16;27.64;100093.23;1716007;81;21562;-57
2022/07/05 11:28:02;;;;;;;6.87;6.17;;;;;;;36.60;26.67;100090.16;1713383;82;22303;-56